sensor_id;sensor_type;location;lat;lon;timestamp;temperature;humidity
59977;DHT22;45837;51.076;3.578;2022-11-20T00:00:44;19.70;57.30
59977;DHT22;45837;51.076;3.578;2022-11-20T00:03:10;19.60;57.30
59977;DHT22;45837;51.076;3.578;2022-11-20T00:05:36;19.60;57.30
59977;DHT22;45837;51.076;3.578;2022-11-20T00:08:02;19.60;57.30
59977;DHT22;45837;51.076;3.578;2022-11-20T00:10:28;19.60;57.30
59977;DHT22;45837;51.076;3.578;2022-11-20T00:12:53;19.60;57.30
59977;DHT22;45837;51.076;3.578;2022-11-20T00:15:19;19.60;57.30
59977;DHT22;45837;51.076;3.578;2022-11-20T00:17:45;19.60;57.30
59977;DHT22;45837;51.076;3.578;2022-11-20T00:20:11;19.60;57.30
59977;DHT22;45837;51.076;3.578;2022-11-20T00:22:38;19.60;57.30
59977;DHT22;45837;51.076;3.578;2022-11-20T00:25:04;19.60;57.30
59977;DHT22;45837;51.076;3.578;2022-11-20T00:27:30;19.50;57.30
59977;DHT22;45837;51.076;3.578;2022-11-20T00:29:56;19.50;57.30
59977;DHT22;45837;51.076;3.578;2022-11-20T00:32:22;19.60;57.40
59977;DHT22;45837;51.076;3.578;2022-11-20T00:34:47;19.50;57.30
59977;DHT22;45837;51.076;3.578;2022-11-20T00:37:13;19.50;57.30
59977;DHT22;45837;51.076;3.578;2022-11-20T00:39:39;19.50;57.40
59977;DHT22;45837;51.076;3.578;2022-11-20T00:42:05;19.50;57.30
59977;DHT22;45837;51.076;3.578;2022-11-20T00:44:31;19.50;57.30
59977;DHT22;45837;51.076;3.578;2022-11-20T00:46:56;19.50;57.30
59977;DHT22;45837;51.076;3.578;2022-11-20T00:49:22;19.50;57.40
59977;DHT22;45837;51.076;3.578;2022-11-20T00:51:48;19.50;57.40
59977;DHT22;45837;51.076;3.578;2022-11-20T00:54:14;19.50;57.30
59977;DHT22;45837;51.076;3.578;2022-11-20T00:56:40;19.40;57.30
59977;DHT22;45837;51.076;3.578;2022-11-20T00:59:06;19.50;57.40
59977;DHT22;45837;51.076;3.578;2022-11-20T01:01:32;19.40;57.30
59977;DHT22;45837;51.076;3.578;2022-11-20T01:03:59;19.50;57.40
59977;DHT22;45837;51.076;3.578;2022-11-20T01:06:31;19.40;57.30
59977;DHT22;45837;51.076;3.578;2022-11-20T01:09:01;19.40;57.30
59977;DHT22;45837;51.076;3.578;2022-11-20T01:11:29;19.40;57.20
59977;DHT22;45837;51.076;3.578;2022-11-20T01:13:56;19.40;57.20
59977;DHT22;45837;51.076;3.578;2022-11-20T01:18:56;19.40;57.80
59977;DHT22;45837;51.076;3.578;2022-11-20T01:21:28;19.40;57.20
59977;DHT22;45837;51.076;3.578;2022-11-20T01:23:54;19.40;57.20
59977;DHT22;45837;51.076;3.578;2022-11-20T01:26:22;19.40;57.30
59977;DHT22;45837;51.076;3.578;2022-11-20T01:28:49;19.30;57.20
59977;DHT22;45837;51.076;3.578;2022-11-20T01:31:24;19.30;57.20
59977;DHT22;45837;51.076;3.578;2022-11-20T01:33:53;19.30;57.20
59977;DHT22;45837;51.076;3.578;2022-11-20T01:36:20;19.30;57.20
59977;DHT22;45837;51.076;3.578;2022-11-20T01:38:47;19.20;57.10
59977;DHT22;45837;51.076;3.578;2022-11-20T01:41:14;19.30;57.20
59977;DHT22;45837;51.076;3.578;2022-11-20T01:44:01;19.30;57.20
59977;DHT22;45837;51.076;3.578;2022-11-20T01:46:27;19.30;57.20
59977;DHT22;45837;51.076;3.578;2022-11-20T01:49:04;19.30;57.20
59977;DHT22;45837;51.076;3.578;2022-11-20T01:51:46;19.30;57.10
59977;DHT22;45837;51.076;3.578;2022-11-20T01:54:23;19.30;57.20
59977;DHT22;45837;51.076;3.578;2022-11-20T01:56:53;19.20;57.10
59977;DHT22;45837;51.076;3.578;2022-11-20T01:59:20;19.30;57.20
59977;DHT22;45837;51.076;3.578;2022-11-20T02:01:47;19.20;57.20
59977;DHT22;45837;51.076;3.578;2022-11-20T02:04:14;19.20;57.30
59977;DHT22;45837;51.076;3.578;2022-11-20T02:06:48;19.20;57.20
59977;DHT22;45837;51.076;3.578;2022-11-20T02:09:15;19.20;57.20
59977;DHT22;45837;51.076;3.578;2022-11-20T02:11:41;19.20;57.30
59977;DHT22;45837;51.076;3.578;2022-11-20T02:14:08;19.20;57.20
59977;DHT22;45837;51.076;3.578;2022-11-20T02:16:37;19.20;57.10
59977;DHT22;45837;51.076;3.578;2022-11-20T02:19:11;19.20;57.20
59977;DHT22;45837;51.076;3.578;2022-11-20T02:24:26;19.20;57.20
59977;DHT22;45837;51.076;3.578;2022-11-20T02:27:07;19.20;57.20
59977;DHT22;45837;51.076;3.578;2022-11-20T02:32:28;19.10;57.20
59977;DHT22;45837;51.076;3.578;2022-11-20T02:34:55;19.20;57.20
59977;DHT22;45837;51.076;3.578;2022-11-20T02:37:22;19.10;57.40
59977;DHT22;45837;51.076;3.578;2022-11-20T02:39:49;19.10;57.20
59977;DHT22;45837;51.076;3.578;2022-11-20T02:42:16;19.10;57.30
59977;DHT22;45837;51.076;3.578;2022-11-20T02:44:42;19.10;57.30
59977;DHT22;45837;51.076;3.578;2022-11-20T02:47:08;19.10;57.30
59977;DHT22;45837;51.076;3.578;2022-11-20T02:49:34;19.10;57.20
59977;DHT22;45837;51.076;3.578;2022-11-20T02:52:00;19.10;57.30
59977;DHT22;45837;51.076;3.578;2022-11-20T02:54:26;19.10;57.20
59977;DHT22;45837;51.076;3.578;2022-11-20T02:56:52;19.10;57.20
59977;DHT22;45837;51.076;3.578;2022-11-20T02:59:18;19.10;57.20
59977;DHT22;45837;51.076;3.578;2022-11-20T03:01:44;19.10;57.20
59977;DHT22;45837;51.076;3.578;2022-11-20T03:04:10;19.10;57.20
59977;DHT22;45837;51.076;3.578;2022-11-20T03:06:35;19.10;57.20
59977;DHT22;45837;51.076;3.578;2022-11-20T03:09:02;19.10;57.20
59977;DHT22;45837;51.076;3.578;2022-11-20T03:11:28;19.10;57.20
59977;DHT22;45837;51.076;3.578;2022-11-20T03:13:54;19.10;57.20
59977;DHT22;45837;51.076;3.578;2022-11-20T03:16:21;19.00;57.20
59977;DHT22;45837;51.076;3.578;2022-11-20T03:18:48;19.00;57.10
59977;DHT22;45837;51.076;3.578;2022-11-20T03:21:14;19.00;57.20
59977;DHT22;45837;51.076;3.578;2022-11-20T03:23:41;19.00;57.20
59977;DHT22;45837;51.076;3.578;2022-11-20T03:26:19;19.00;57.20
59977;DHT22;45837;51.076;3.578;2022-11-20T03:28:54;19.00;57.20
59977;DHT22;45837;51.076;3.578;2022-11-20T03:31:29;19.00;57.10
59977;DHT22;45837;51.076;3.578;2022-11-20T03:33:56;19.00;57.20
59977;DHT22;45837;51.076;3.578;2022-11-20T03:36:22;19.00;57.20
59977;DHT22;45837;51.076;3.578;2022-11-20T03:38:48;19.00;57.30
59977;DHT22;45837;51.076;3.578;2022-11-20T03:41:20;19.00;57.20
59977;DHT22;45837;51.076;3.578;2022-11-20T03:44:00;19.00;57.20
59977;DHT22;45837;51.076;3.578;2022-11-20T03:46:27;19.00;57.20
59977;DHT22;45837;51.076;3.578;2022-11-20T03:48:54;19.00;57.20
59977;DHT22;45837;51.076;3.578;2022-11-20T03:53:49;19.00;57.30
59977;DHT22;45837;51.076;3.578;2022-11-20T03:56:17;19.00;57.20
59977;DHT22;45837;51.076;3.578;2022-11-20T03:58:43;18.90;57.30
59977;DHT22;45837;51.076;3.578;2022-11-20T04:01:12;18.90;57.30
59977;DHT22;45837;51.076;3.578;2022-11-20T04:03:40;18.90;57.10
59977;DHT22;45837;51.076;3.578;2022-11-20T04:08:33;18.90;57.20
59977;DHT22;45837;51.076;3.578;2022-11-20T04:11:12;18.90;57.30
59977;DHT22;45837;51.076;3.578;2022-11-20T04:13:39;18.90;57.20
59977;DHT22;45837;51.076;3.578;2022-11-20T04:16:06;18.90;57.20
59977;DHT22;45837;51.076;3.578;2022-11-20T04:18:32;18.90;57.20
59977;DHT22;45837;51.076;3.578;2022-11-20T04:20:59;18.80;57.20
59977;DHT22;45837;51.076;3.578;2022-11-20T04:23:25;18.80;57.10
59977;DHT22;45837;51.076;3.578;2022-11-20T04:25:51;18.80;57.20
59977;DHT22;45837;51.076;3.578;2022-11-20T04:28:16;18.90;57.30
59977;DHT22;45837;51.076;3.578;2022-11-20T04:30:42;18.90;57.30
59977;DHT22;45837;51.076;3.578;2022-11-20T04:33:08;18.80;57.20
59977;DHT22;45837;51.076;3.578;2022-11-20T04:35:35;18.90;57.30
59977;DHT22;45837;51.076;3.578;2022-11-20T04:38:01;18.80;57.20
59977;DHT22;45837;51.076;3.578;2022-11-20T04:40:30;18.80;56.90
59977;DHT22;45837;51.076;3.578;2022-11-20T04:42:56;18.80;56.90
59977;DHT22;45837;51.076;3.578;2022-11-20T04:45:22;18.80;56.60
59977;DHT22;45837;51.076;3.578;2022-11-20T04:47:49;18.80;56.80
59977;DHT22;45837;51.076;3.578;2022-11-20T04:50:15;18.80;56.70
59977;DHT22;45837;51.076;3.578;2022-11-20T04:52:40;18.80;56.70
59977;DHT22;45837;51.076;3.578;2022-11-20T04:55:07;18.80;56.80
59977;DHT22;45837;51.076;3.578;2022-11-20T04:57:33;18.80;56.80
59977;DHT22;45837;51.076;3.578;2022-11-20T04:59:58;18.80;56.80
59977;DHT22;45837;51.076;3.578;2022-11-20T05:02:24;18.80;56.80
59977;DHT22;45837;51.076;3.578;2022-11-20T05:04:50;18.80;56.90
59977;DHT22;45837;51.076;3.578;2022-11-20T05:07:16;18.80;57.00
59977;DHT22;45837;51.076;3.578;2022-11-20T05:09:42;18.80;56.90
59977;DHT22;45837;51.076;3.578;2022-11-20T05:12:08;18.80;56.90
59977;DHT22;45837;51.076;3.578;2022-11-20T05:14:34;18.80;56.90
59977;DHT22;45837;51.076;3.578;2022-11-20T05:17:00;18.80;57.00
59977;DHT22;45837;51.076;3.578;2022-11-20T05:19:26;18.80;56.90
59977;DHT22;45837;51.076;3.578;2022-11-20T05:21:52;18.70;56.90
59977;DHT22;45837;51.076;3.578;2022-11-20T05:24:18;18.70;56.80
59977;DHT22;45837;51.076;3.578;2022-11-20T05:26:43;18.70;57.00
59977;DHT22;45837;51.076;3.578;2022-11-20T05:29:11;18.80;57.00
59977;DHT22;45837;51.076;3.578;2022-11-20T05:31:39;18.70;56.90
59977;DHT22;45837;51.076;3.578;2022-11-20T05:34:06;18.70;56.90
59977;DHT22;45837;51.076;3.578;2022-11-20T05:36:32;18.70;56.90
59977;DHT22;45837;51.076;3.578;2022-11-20T05:38:58;18.70;56.90
59977;DHT22;45837;51.076;3.578;2022-11-20T05:41:24;18.70;57.00
59977;DHT22;45837;51.076;3.578;2022-11-20T05:43:50;18.70;57.00
59977;DHT22;45837;51.076;3.578;2022-11-20T05:46:19;18.70;57.00
59977;DHT22;45837;51.076;3.578;2022-11-20T05:48:45;18.70;57.00
59977;DHT22;45837;51.076;3.578;2022-11-20T05:51:14;18.70;57.00
59977;DHT22;45837;51.076;3.578;2022-11-20T05:53:40;18.70;57.00
59977;DHT22;45837;51.076;3.578;2022-11-20T05:56:09;18.60;57.00
59977;DHT22;45837;51.076;3.578;2022-11-20T05:58:37;18.70;57.00
59977;DHT22;45837;51.076;3.578;2022-11-20T06:03:37;18.60;57.00
59977;DHT22;45837;51.076;3.578;2022-11-20T06:06:04;18.70;57.00
59977;DHT22;45837;51.076;3.578;2022-11-20T06:08:31;18.60;57.00
59977;DHT22;45837;51.076;3.578;2022-11-20T06:10:57;18.60;57.00
59977;DHT22;45837;51.076;3.578;2022-11-20T06:13:23;18.60;57.10
59977;DHT22;45837;51.076;3.578;2022-11-20T06:15:50;18.60;57.10
59977;DHT22;45837;51.076;3.578;2022-11-20T06:18:16;18.60;57.00
59977;DHT22;45837;51.076;3.578;2022-11-20T06:20:41;18.60;57.10
59977;DHT22;45837;51.076;3.578;2022-11-20T06:23:07;18.60;57.10
59977;DHT22;45837;51.076;3.578;2022-11-20T06:25:36;18.60;57.10
59977;DHT22;45837;51.076;3.578;2022-11-20T06:28:02;18.60;57.10
59977;DHT22;45837;51.076;3.578;2022-11-20T06:30:28;18.60;57.20
59977;DHT22;45837;51.076;3.578;2022-11-20T06:32:54;18.60;57.20
59977;DHT22;45837;51.076;3.578;2022-11-20T06:35:19;18.60;57.20
59977;DHT22;45837;51.076;3.578;2022-11-20T06:37:45;18.60;57.10
59977;DHT22;45837;51.076;3.578;2022-11-20T06:40:11;18.50;57.10
59977;DHT22;45837;51.076;3.578;2022-11-20T06:42:37;18.60;57.20
59977;DHT22;45837;51.076;3.578;2022-11-20T06:45:03;18.50;57.20
59977;DHT22;45837;51.076;3.578;2022-11-20T06:47:29;18.50;57.30
59977;DHT22;45837;51.076;3.578;2022-11-20T06:49:55;18.60;57.30
59977;DHT22;45837;51.076;3.578;2022-11-20T06:52:21;18.50;57.40
59977;DHT22;45837;51.076;3.578;2022-11-20T06:54:47;18.60;57.80
59977;DHT22;45837;51.076;3.578;2022-11-20T06:57:13;18.60;58.00
59977;DHT22;45837;51.076;3.578;2022-11-20T06:59:38;18.60;58.30
59977;DHT22;45837;51.076;3.578;2022-11-20T07:02:04;18.60;58.60
59977;DHT22;45837;51.076;3.578;2022-11-20T07:04:31;18.70;58.90
59977;DHT22;45837;51.076;3.578;2022-11-20T07:06:57;18.70;58.90
59977;DHT22;45837;51.076;3.578;2022-11-20T07:09:23;18.70;59.10
59977;DHT22;45837;51.076;3.578;2022-11-20T07:11:49;18.70;58.90
59977;DHT22;45837;51.076;3.578;2022-11-20T07:14:14;18.80;58.90
59977;DHT22;45837;51.076;3.578;2022-11-20T07:16:40;18.80;58.90
59977;DHT22;45837;51.076;3.578;2022-11-20T07:19:06;18.80;59.00
59977;DHT22;45837;51.076;3.578;2022-11-20T07:21:32;18.90;59.00
59977;DHT22;45837;51.076;3.578;2022-11-20T07:23:58;19.00;59.00
59977;DHT22;45837;51.076;3.578;2022-11-20T07:26:23;19.10;58.90
59977;DHT22;45837;51.076;3.578;2022-11-20T07:28:49;19.10;58.90
59977;DHT22;45837;51.076;3.578;2022-11-20T07:31:15;19.20;58.70
59977;DHT22;45837;51.076;3.578;2022-11-20T07:33:41;19.30;58.50
59977;DHT22;45837;51.076;3.578;2022-11-20T07:36:07;19.40;58.50
59977;DHT22;45837;51.076;3.578;2022-11-20T07:38:33;19.40;58.30
59977;DHT22;45837;51.076;3.578;2022-11-20T07:40:59;19.60;58.20
59977;DHT22;45837;51.076;3.578;2022-11-20T07:43:27;19.70;58.10
59977;DHT22;45837;51.076;3.578;2022-11-20T07:45:57;19.70;58.00
59977;DHT22;45837;51.076;3.578;2022-11-20T07:48:23;19.50;57.60
59977;DHT22;45837;51.076;3.578;2022-11-20T07:50:52;19.90;57.60
59977;DHT22;45837;51.076;3.578;2022-11-20T07:53:18;20.00;57.50
59977;DHT22;45837;51.076;3.578;2022-11-20T07:55:46;20.10;57.40
59977;DHT22;45837;51.076;3.578;2022-11-20T07:58:12;20.20;57.30
59977;DHT22;45837;51.076;3.578;2022-11-20T08:00:40;20.20;57.20
59977;DHT22;45837;51.076;3.578;2022-11-20T08:03:06;20.30;57.00
59977;DHT22;45837;51.076;3.578;2022-11-20T08:05:32;20.40;57.00
59977;DHT22;45837;51.076;3.578;2022-11-20T08:07:59;20.40;56.80
59977;DHT22;45837;51.076;3.578;2022-11-20T08:10:25;20.50;56.90
59977;DHT22;45837;51.076;3.578;2022-11-20T08:12:52;20.60;56.70
59977;DHT22;45837;51.076;3.578;2022-11-20T08:15:38;20.60;56.70
59977;DHT22;45837;51.076;3.578;2022-11-20T08:18:06;20.60;56.90
59977;DHT22;45837;51.076;3.578;2022-11-20T08:20:32;20.70;57.40
59977;DHT22;45837;51.076;3.578;2022-11-20T08:23:03;20.80;56.90
59977;DHT22;45837;51.076;3.578;2022-11-20T08:25:31;20.80;56.90
59977;DHT22;45837;51.076;3.578;2022-11-20T08:27:58;20.80;56.90
59977;DHT22;45837;51.076;3.578;2022-11-20T08:30:25;20.80;56.90
59977;DHT22;45837;51.076;3.578;2022-11-20T08:32:51;20.80;56.90
59977;DHT22;45837;51.076;3.578;2022-11-20T08:35:17;20.90;56.80
59977;DHT22;45837;51.076;3.578;2022-11-20T08:37:46;20.90;56.70
59977;DHT22;45837;51.076;3.578;2022-11-20T08:40:12;20.90;56.60
59977;DHT22;45837;51.076;3.578;2022-11-20T08:42:49;20.90;56.70
59977;DHT22;45837;51.076;3.578;2022-11-20T08:45:16;20.90;56.80
59977;DHT22;45837;51.076;3.578;2022-11-20T08:47:43;20.90;57.00
59977;DHT22;45837;51.076;3.578;2022-11-20T08:50:10;20.90;57.00
59977;DHT22;45837;51.076;3.578;2022-11-20T08:52:37;20.90;57.20
59977;DHT22;45837;51.076;3.578;2022-11-20T08:55:04;20.90;57.50
59977;DHT22;45837;51.076;3.578;2022-11-20T08:57:34;21.00;57.40
59977;DHT22;45837;51.076;3.578;2022-11-20T09:00:01;21.00;57.60
59977;DHT22;45837;51.076;3.578;2022-11-20T09:02:27;21.00;57.70
59977;DHT22;45837;51.076;3.578;2022-11-20T09:04:53;21.00;57.60
59977;DHT22;45837;51.076;3.578;2022-11-20T09:07:19;21.00;57.30
59977;DHT22;45837;51.076;3.578;2022-11-20T09:09:45;21.00;56.90
59977;DHT22;45837;51.076;3.578;2022-11-20T09:12:11;21.10;56.80
59977;DHT22;45837;51.076;3.578;2022-11-20T09:14:37;21.00;56.60
59977;DHT22;45837;51.076;3.578;2022-11-20T09:17:03;21.00;56.60
59977;DHT22;45837;51.076;3.578;2022-11-20T09:19:29;21.00;56.60
59977;DHT22;45837;51.076;3.578;2022-11-20T09:21:55;21.00;56.50
59977;DHT22;45837;51.076;3.578;2022-11-20T09:24:20;21.00;56.30
59977;DHT22;45837;51.076;3.578;2022-11-20T09:26:47;21.00;56.20
59977;DHT22;45837;51.076;3.578;2022-11-20T09:29:12;20.90;56.00
59977;DHT22;45837;51.076;3.578;2022-11-20T09:31:38;20.90;56.00
59977;DHT22;45837;51.076;3.578;2022-11-20T09:34:04;20.80;55.90
59977;DHT22;45837;51.076;3.578;2022-11-20T09:36:31;20.80;55.80
59977;DHT22;45837;51.076;3.578;2022-11-20T09:38:56;20.80;55.80
59977;DHT22;45837;51.076;3.578;2022-11-20T09:49:49;20.60;55.60
59977;DHT22;45837;51.076;3.578;2022-11-20T09:54:53;20.60;55.70
59977;DHT22;45837;51.076;3.578;2022-11-20T09:57:30;20.60;55.90
59977;DHT22;45837;51.076;3.578;2022-11-20T10:00:05;20.60;56.10
59977;DHT22;45837;51.076;3.578;2022-11-20T10:02:48;20.50;56.30
59977;DHT22;45837;51.076;3.578;2022-11-20T10:05:44;20.50;56.50
59977;DHT22;45837;51.076;3.578;2022-11-20T10:10:46;20.50;57.00
59977;DHT22;45837;51.076;3.578;2022-11-20T10:16:22;20.40;57.00
59977;DHT22;45837;51.076;3.578;2022-11-20T10:19:13;20.40;57.20
59977;DHT22;45837;51.076;3.578;2022-11-20T10:27:37;20.40;57.70
59977;DHT22;45837;51.076;3.578;2022-11-20T10:30:16;20.40;57.50
59977;DHT22;45837;51.076;3.578;2022-11-20T10:32:47;20.40;57.10
59977;DHT22;45837;51.076;3.578;2022-11-20T10:37:53;20.40;56.70
59977;DHT22;45837;51.076;3.578;2022-11-20T10:42:56;20.50;56.00
59977;DHT22;45837;51.076;3.578;2022-11-20T10:48:12;20.60;55.70
59977;DHT22;45837;51.076;3.578;2022-11-20T10:51:07;20.80;55.40
59977;DHT22;45837;51.076;3.578;2022-11-20T10:53:54;20.80;54.90
59977;DHT22;45837;51.076;3.578;2022-11-20T11:01:49;20.90;54.40
59977;DHT22;45837;51.076;3.578;2022-11-20T11:06:51;21.00;53.60
59977;DHT22;45837;51.076;3.578;2022-11-20T11:09:30;21.10;53.20
59977;DHT22;45837;51.076;3.578;2022-11-20T11:11:58;21.10;53.00
59977;DHT22;45837;51.076;3.578;2022-11-20T11:14:24;21.10;53.90
59977;DHT22;45837;51.076;3.578;2022-11-20T11:16:55;21.10;54.00
59977;DHT22;45837;51.076;3.578;2022-11-20T11:19:21;21.10;54.40
59977;DHT22;45837;51.076;3.578;2022-11-20T11:21:50;21.10;54.30
59977;DHT22;45837;51.076;3.578;2022-11-20T11:24:22;21.10;54.20
59977;DHT22;45837;51.076;3.578;2022-11-20T11:26:56;21.20;54.20
59977;DHT22;45837;51.076;3.578;2022-11-20T11:29:23;21.10;54.10
59977;DHT22;45837;51.076;3.578;2022-11-20T11:31:49;21.10;54.00
59977;DHT22;45837;51.076;3.578;2022-11-20T11:34:17;21.10;53.80
59977;DHT22;45837;51.076;3.578;2022-11-20T11:36:54;21.10;53.50
59977;DHT22;45837;51.076;3.578;2022-11-20T11:39:21;21.20;53.20
59977;DHT22;45837;51.076;3.578;2022-11-20T11:41:48;21.20;53.00
59977;DHT22;45837;51.076;3.578;2022-11-20T11:46:58;21.20;52.50
59977;DHT22;45837;51.076;3.578;2022-11-20T11:49:24;21.20;52.40
59977;DHT22;45837;51.076;3.578;2022-11-20T11:52:11;21.20;52.30
59977;DHT22;45837;51.076;3.578;2022-11-20T11:54:53;21.20;52.30
59977;DHT22;45837;51.076;3.578;2022-11-20T11:57:46;21.10;52.40
59977;DHT22;45837;51.076;3.578;2022-11-20T12:00:16;21.10;52.60
59977;DHT22;45837;51.076;3.578;2022-11-20T12:05:34;21.10;53.70
59977;DHT22;45837;51.076;3.578;2022-11-20T12:10:48;21.10;55.00
59977;DHT22;45837;51.076;3.578;2022-11-20T12:13:44;21.20;55.30
59977;DHT22;45837;51.076;3.578;2022-11-20T12:16:15;21.20;56.20
59977;DHT22;45837;51.076;3.578;2022-11-20T12:18:43;21.20;56.50
59977;DHT22;45837;51.076;3.578;2022-11-20T12:21:38;21.20;56.50
59977;DHT22;45837;51.076;3.578;2022-11-20T12:24:20;21.20;56.90
59977;DHT22;45837;51.076;3.578;2022-11-20T12:29:56;21.20;57.80
59977;DHT22;45837;51.076;3.578;2022-11-20T12:43:13;21.20;58.60
59977;DHT22;45837;51.076;3.578;2022-11-20T12:51:43;21.20;57.70
59977;DHT22;45837;51.076;3.578;2022-11-20T12:57:03;21.30;57.00
59977;DHT22;45837;51.076;3.578;2022-11-20T13:02:33;21.30;56.80
59977;DHT22;45837;51.076;3.578;2022-11-20T13:05:13;21.30;57.10
59977;DHT22;45837;51.076;3.578;2022-11-20T13:07:43;21.10;57.00
59977;DHT22;45837;51.076;3.578;2022-11-20T13:10:26;21.10;56.90
59977;DHT22;45837;51.076;3.578;2022-11-20T13:13:03;21.10;56.60
59977;DHT22;45837;51.076;3.578;2022-11-20T13:15:43;21.10;56.60
59977;DHT22;45837;51.076;3.578;2022-11-20T13:18:11;21.10;56.60
59977;DHT22;45837;51.076;3.578;2022-11-20T13:20:43;21.00;56.70
59977;DHT22;45837;51.076;3.578;2022-11-20T13:23:09;20.90;56.80
59977;DHT22;45837;51.076;3.578;2022-11-20T13:25:38;20.90;56.90
59977;DHT22;45837;51.076;3.578;2022-11-20T13:30:35;20.90;57.10
59977;DHT22;45837;51.076;3.578;2022-11-20T13:33:20;20.80;57.10
59977;DHT22;45837;51.076;3.578;2022-11-20T13:36:06;20.80;57.20
59977;DHT22;45837;51.076;3.578;2022-11-20T13:39:02;20.80;57.20
59977;DHT22;45837;51.076;3.578;2022-11-20T13:41:34;20.70;57.30
59977;DHT22;45837;51.076;3.578;2022-11-20T13:44:15;20.70;57.20
59977;DHT22;45837;51.076;3.578;2022-11-20T13:46:48;20.60;57.10
59977;DHT22;45837;51.076;3.578;2022-11-20T13:49:26;20.60;57.30
59977;DHT22;45837;51.076;3.578;2022-11-20T13:54:46;20.60;57.10
59977;DHT22;45837;51.076;3.578;2022-11-20T14:00:17;20.60;57.10
59977;DHT22;45837;51.076;3.578;2022-11-20T14:02:47;20.60;56.90
59977;DHT22;45837;51.076;3.578;2022-11-20T14:05:22;20.50;56.90
59977;DHT22;45837;51.076;3.578;2022-11-20T14:07:49;20.40;56.70
59977;DHT22;45837;51.076;3.578;2022-11-20T14:10:33;20.40;56.60
59977;DHT22;45837;51.076;3.578;2022-11-20T14:13:10;20.40;56.20
59977;DHT22;45837;51.076;3.578;2022-11-20T14:15:36;20.40;56.10
59977;DHT22;45837;51.076;3.578;2022-11-20T14:18:21;20.40;56.10
59977;DHT22;45837;51.076;3.578;2022-11-20T14:20:47;20.30;56.00
59977;DHT22;45837;51.076;3.578;2022-11-20T14:23:25;20.30;56.00
59977;DHT22;45837;51.076;3.578;2022-11-20T14:25:51;20.30;55.80
59977;DHT22;45837;51.076;3.578;2022-11-20T14:28:29;20.20;55.80
59977;DHT22;45837;51.076;3.578;2022-11-20T14:30:56;20.30;55.70
59977;DHT22;45837;51.076;3.578;2022-11-20T14:33:23;20.20;55.40
59977;DHT22;45837;51.076;3.578;2022-11-20T14:35:57;20.20;56.10
59977;DHT22;45837;51.076;3.578;2022-11-20T14:38:32;20.20;56.40
59977;DHT22;45837;51.076;3.578;2022-11-20T14:41:09;20.30;56.70
59977;DHT22;45837;51.076;3.578;2022-11-20T14:43:35;20.30;57.70
59977;DHT22;45837;51.076;3.578;2022-11-20T14:46:08;20.20;57.40
59977;DHT22;45837;51.076;3.578;2022-11-20T14:48:50;20.20;57.80
59977;DHT22;45837;51.076;3.578;2022-11-20T14:51:39;20.30;58.40
59977;DHT22;45837;51.076;3.578;2022-11-20T14:54:19;20.30;58.70
59977;DHT22;45837;51.076;3.578;2022-11-20T14:56:58;20.30;59.00
59977;DHT22;45837;51.076;3.578;2022-11-20T14:59:34;20.40;59.20
59977;DHT22;45837;51.076;3.578;2022-11-20T15:02:11;20.40;59.20
59977;DHT22;45837;51.076;3.578;2022-11-20T15:04:56;20.50;59.60
59977;DHT22;45837;51.076;3.578;2022-11-20T15:07:29;20.60;59.60
59977;DHT22;45837;51.076;3.578;2022-11-20T15:10:02;20.60;59.50
59977;DHT22;45837;51.076;3.578;2022-11-20T15:12:32;20.80;59.40
59977;DHT22;45837;51.076;3.578;2022-11-20T15:14:58;20.90;59.40
59977;DHT22;45837;51.076;3.578;2022-11-20T15:17:24;21.00;59.10
59977;DHT22;45837;51.076;3.578;2022-11-20T15:19:51;21.10;59.10
59977;DHT22;45837;51.076;3.578;2022-11-20T15:22:17;21.20;59.00
59977;DHT22;45837;51.076;3.578;2022-11-20T15:24:43;21.20;59.00
59977;DHT22;45837;51.076;3.578;2022-11-20T15:27:10;21.20;58.90
59977;DHT22;45837;51.076;3.578;2022-11-20T15:29:36;21.20;58.40
59977;DHT22;45837;51.076;3.578;2022-11-20T15:32:02;21.20;58.30
59977;DHT22;45837;51.076;3.578;2022-11-20T15:34:28;21.20;58.30
59977;DHT22;45837;51.076;3.578;2022-11-20T15:36:54;21.30;58.50
59977;DHT22;45837;51.076;3.578;2022-11-20T15:39:20;21.30;58.40
59977;DHT22;45837;51.076;3.578;2022-11-20T15:41:46;21.30;58.40
59977;DHT22;45837;51.076;3.578;2022-11-20T15:44:12;21.30;59.10
59977;DHT22;45837;51.076;3.578;2022-11-20T15:46:40;21.20;58.60
59977;DHT22;45837;51.076;3.578;2022-11-20T15:49:15;21.20;58.40
59977;DHT22;45837;51.076;3.578;2022-11-20T15:51:44;21.20;58.10
59977;DHT22;45837;51.076;3.578;2022-11-20T15:54:17;21.20;58.00
59977;DHT22;45837;51.076;3.578;2022-11-20T15:56:46;21.10;57.60
59977;DHT22;45837;51.076;3.578;2022-11-20T15:59:12;21.10;56.30
59977;DHT22;45837;51.076;3.578;2022-11-20T16:01:41;21.10;56.00
59977;DHT22;45837;51.076;3.578;2022-11-20T16:04:11;21.10;56.20
59977;DHT22;45837;51.076;3.578;2022-11-20T16:06:37;21.00;56.40
59977;DHT22;45837;51.076;3.578;2022-11-20T16:09:03;21.00;56.10
59977;DHT22;45837;51.076;3.578;2022-11-20T16:11:30;21.10;55.10
59977;DHT22;45837;51.076;3.578;2022-11-20T16:13:55;21.00;54.90
59977;DHT22;45837;51.076;3.578;2022-11-20T16:16:40;21.00;55.10
59977;DHT22;45837;51.076;3.578;2022-11-20T16:19:16;21.00;55.50
59977;DHT22;45837;51.076;3.578;2022-11-20T16:21:43;21.00;55.60
59977;DHT22;45837;51.076;3.578;2022-11-20T16:24:11;21.00;55.80
59977;DHT22;45837;51.076;3.578;2022-11-20T16:26:39;21.00;55.80
59977;DHT22;45837;51.076;3.578;2022-11-20T16:29:06;21.00;55.90
59977;DHT22;45837;51.076;3.578;2022-11-20T16:31:32;21.00;55.90
59977;DHT22;45837;51.076;3.578;2022-11-20T16:34:01;21.00;55.90
59977;DHT22;45837;51.076;3.578;2022-11-20T16:36:28;21.00;55.90
59977;DHT22;45837;51.076;3.578;2022-11-20T16:38:56;21.00;56.30
59977;DHT22;45837;51.076;3.578;2022-11-20T16:41:23;21.10;56.50
59977;DHT22;45837;51.076;3.578;2022-11-20T16:43:56;21.10;56.60
59977;DHT22;45837;51.076;3.578;2022-11-20T16:46:27;21.10;56.70
59977;DHT22;45837;51.076;3.578;2022-11-20T16:48:58;21.20;57.20
59977;DHT22;45837;51.076;3.578;2022-11-20T16:51:25;21.20;57.40
59977;DHT22;45837;51.076;3.578;2022-11-20T16:53:52;21.20;57.60
59977;DHT22;45837;51.076;3.578;2022-11-20T16:56:21;21.20;57.70
59977;DHT22;45837;51.076;3.578;2022-11-20T16:58:48;21.20;57.80
59977;DHT22;45837;51.076;3.578;2022-11-20T17:01:16;21.20;57.90
59977;DHT22;45837;51.076;3.578;2022-11-20T17:03:43;21.20;58.00
59977;DHT22;45837;51.076;3.578;2022-11-20T17:06:18;21.30;58.10
59977;DHT22;45837;51.076;3.578;2022-11-20T17:08:45;21.30;58.20
59977;DHT22;45837;51.076;3.578;2022-11-20T17:11:14;21.20;58.20
59977;DHT22;45837;51.076;3.578;2022-11-20T17:13:41;21.30;58.30
59977;DHT22;45837;51.076;3.578;2022-11-20T17:16:12;21.20;58.40
59977;DHT22;45837;51.076;3.578;2022-11-20T17:18:38;21.20;58.50